Aviation Digital Data Service (ADDS)

Output produced by TAFs form (1849 UTC 29 July 2014)
found at http://www.aviationweather.gov/adds/tafs/
 
KPSF 291732Z 2918/3018 28010KT P6SM SCT040 
     FM300100 00000KT P6SM SCT040 
     FM300800 00000KT 4SM BR SCT040 
     FM301300 23006KT P6SM SCT040